Time;durP1;ratioP1;P1;durP2;ratioP2;P2;SDS_P1;SDS_P2;PMS_P1;PMS_P2;Temp;Humidity;BMP_temperature;BMP_pressure;BME280_temperature;BME280_humidity;BME280_pressure;Samples;Min_cycle;Max_cycle;Signal;HPM_P1;HPM_P2
2023/07/12 00:01:15;;;;;;;8.85;5.20;;;;;;;17.92;100.00;93944.28;5028635;28;20522;-62
2023/07/12 00:03:42;;;;;;;11.55;5.38;;;;;;;17.82;100.00;93939.19;5028617;28;20037;-62
2023/07/12 00:06:14;;;;;;;9.23;5.05;;;;;;;17.89;100.00;93980.56;5026837;28;20042;-61
2023/07/12 00:08:41;;;;;;;9.07;5.45;;;;;;;18.06;100.00;93998.44;5027875;28;20057;-61
2023/07/12 00:11:19;;;;;;;9.77;5.20;;;;;;;18.15;100.00;93986.59;5027480;28;21427;-63
2023/07/12 00:13:47;;;;;;;10.30;5.03;;;;;;;18.15;100.00;93976.25;5027271;28;20040;-62
2023/07/12 00:16:28;;;;;;;10.93;5.60;;;;;;;18.06;100.00;93965.13;5028273;28;20065;-62
2023/07/12 00:18:56;;;;;;;14.32;8.63;;;;;;;18.09;100.00;93978.09;5027834;28;20057;-62
2023/07/12 00:21:27;;;;;;;12.00;5.78;;;;;;;18.06;100.00;93953.25;5027303;28;20290;-62
2023/07/12 00:23:58;;;;;;;8.97;5.90;;;;;;;18.13;100.00;93920.38;5027801;28;20045;-61
2023/07/12 00:26:29;;;;;;;13.23;6.00;;;;;;;18.02;100.00;93883.22;5028285;28;20430;-62
2023/07/12 00:28:57;;;;;;;10.52;5.38;;;;;;;17.92;100.00;93790.81;5028027;28;20045;-63
2023/07/12 00:31:25;;;;;;;6.70;3.58;;;;;;;17.94;100.00;93747.47;5028527;28;20047;-62
2023/07/12 00:33:52;;;;;;;5.32;3.20;;;;;;;18.11;100.00;93711.00;5027660;28;20053;-63
2023/07/12 00:36:26;;;;;;;7.10;3.37;;;;;;;18.14;100.00;93698.97;5025569;28;20441;-63
2023/07/12 00:38:53;;;;;;;7.93;4.20;;;;;;;18.29;100.00;93704.59;5027398;28;20654;-63
2023/07/12 00:41:32;;;;;;;8.27;4.10;;;;;;;18.26;100.00;93717.41;5028306;28;20123;-61
2023/07/12 00:44:06;;;;;;;9.60;4.60;;;;;;;18.17;100.00;93748.03;5027615;28;20053;-63
2023/07/12 00:46:37;;;;;;;8.48;4.43;;;;;;;18.17;100.00;93759.13;5028097;28;20056;-63
2023/07/12 00:49:04;;;;;;;7.17;4.00;;;;;;;18.19;100.00;93751.09;5027629;28;20650;-62
2023/07/12 00:52:04;;;;;;;9.13;3.92;;;;;;;18.19;100.00;93762.22;5028140;28;20118;-63
2023/07/12 00:54:49;;;;;;;9.65;4.40;;;;;;;18.04;100.00;93766.88;5027181;28;20615;-61
2023/07/12 00:57:15;;;;;;;7.00;3.90;;;;;;;18.02;100.00;93783.25;5027085;28;20061;-61
2023/07/12 00:59:43;;;;;;;7.47;4.35;;;;;;;18.14;100.00;93782.28;5030967;28;20487;-62
2023/07/12 01:02:10;;;;;;;8.20;4.53;;;;;;;18.03;100.00;93784.78;5030908;28;20800;-61
2023/07/12 01:04:40;;;;;;;10.15;4.80;;;;;;;17.94;100.00;93772.47;5024929;28;20422;-62
2023/07/12 01:07:07;;;;;;;9.60;4.50;;;;;;;17.98;100.00;93777.84;5031365;28;20049;-61
2023/07/12 01:09:34;;;;;;;11.60;5.00;;;;;;;17.90;100.00;93773.88;5031660;28;20388;-62
2023/07/12 01:12:01;;;;;;;8.40;4.95;;;;;;;18.00;100.00;93785.72;5028824;28;20156;-61
2023/07/12 01:14:28;;;;;;;8.97;4.60;;;;;;;18.20;100.00;93787.97;5031288;28;20056;-61
2023/07/12 01:17:01;;;;;;;9.15;4.78;;;;;;;18.24;100.00;93791.34;5030946;28;20050;-63
2023/07/12 01:19:28;;;;;;;7.10;4.05;;;;;;;18.31;100.00;93771.56;5031637;28;20128;-61
2023/07/12 01:21:56;;;;;;;6.97;4.22;;;;;;;18.36;100.00;93774.47;5046260;28;20046;-62
2023/07/12 01:24:25;;;;;;;10.93;4.63;;;;;;;18.13;100.00;93777.97;5031534;28;20049;-61
2023/07/12 01:26:57;;;;;;;9.60;4.23;;;;;;;18.17;100.00;93776.56;5030719;28;20054;-61
2023/07/12 01:29:28;;;;;;;8.32;4.63;;;;;;;18.11;100.00;93769.31;5031350;28;20411;-63
2023/07/12 01:31:55;;;;;;;6.85;4.13;;;;;;;18.05;100.00;93771.97;5030526;28;20356;-62
2023/07/12 01:34:24;;;;;;;10.13;4.28;;;;;;;18.10;100.00;93754.66;5031144;28;20120;-62
2023/07/12 01:36:51;;;;;;;9.35;3.80;;;;;;;18.00;100.00;93744.84;5030533;28;20050;-62
2023/07/12 01:39:18;;;;;;;9.17;3.63;;;;;;;17.85;100.00;93741.16;5031044;28;20045;-61
2023/07/12 01:41:45;;;;;;;9.98;3.55;;;;;;;17.82;100.00;93747.66;5030491;28;20057;-62
2023/07/12 01:44:12;;;;;;;7.18;3.42;;;;;;;17.73;100.00;93751.97;5031117;28;20050;-61
2023/07/12 01:46:38;;;;;;;8.77;4.18;;;;;;;17.84;100.00;93745.19;5030815;28;20555;-62
2023/07/12 01:49:05;;;;;;;7.85;3.95;;;;;;;17.76;100.00;93756.59;5030087;28;20360;-61
2023/07/12 01:51:32;;;;;;;9.80;4.00;;;;;;;17.58;100.00;93745.53;5030857;28;20047;-63
2023/07/12 01:53:59;;;;;;;8.90;4.00;;;;;;;17.40;100.00;93746.31;5030052;28;20053;-61
2023/07/12 01:56:26;;;;;;;10.50;4.00;;;;;;;17.23;100.00;93756.97;5030702;28;20376;-62
2023/07/12 01:58:52;;;;;;;7.80;3.90;;;;;;;17.13;100.00;93758.22;5028952;28;20045;-61
2023/07/12 02:01:19;;;;;;;6.18;3.90;;;;;;;17.03;100.00;93756.69;5030428;28;20050;-61
2023/07/12 02:03:46;;;;;;;11.73;4.37;;;;;;;16.97;100.00;93760.03;5030462;28;20650;-62
2023/07/12 02:06:13;;;;;;;9.50;4.32;;;;;;;17.07;100.00;93757.28;5030112;28;20100;-63
2023/07/12 02:08:40;;;;;;;9.40;4.30;;;;;;;17.13;100.00;93763.75;5030641;28;20549;-61
2023/07/12 02:11:07;;;;;;;8.68;4.47;;;;;;;17.15;100.00;93756.50;5029731;28;20483;-61
2023/07/12 02:13:36;;;;;;;8.55;4.03;;;;;;;17.25;100.00;93748.19;5029040;28;20413;-61
2023/07/12 02:16:03;;;;;;;9.47;4.00;;;;;;;17.32;100.00;93753.41;5030109;28;20502;-61
2023/07/12 02:18:29;;;;;;;8.85;4.63;;;;;;;17.33;100.00;93752.97;5030694;28;20045;-62
2023/07/12 02:20:56;;;;;;;9.38;4.10;;;;;;;17.41;100.00;93758.97;5029854;28;20049;-62
2023/07/12 02:23:23;;;;;;;7.95;4.47;;;;;;;17.41;100.00;93749.88;5030447;28;20083;-63
2023/07/12 02:25:49;;;;;;;8.95;4.57;;;;;;;17.32;100.00;93748.63;5030114;28;20045;-61
2023/07/12 02:28:16;;;;;;;10.73;4.50;;;;;;;17.26;100.00;93746.94;5030421;28;20052;-63
2023/07/12 02:30:44;;;;;;;9.15;4.68;;;;;;;17.17;100.00;93742.19;5028940;28;20114;-61
2023/07/12 02:33:11;;;;;;;10.07;4.65;;;;;;;17.30;100.00;93731.69;5007160;28;20068;-62
2023/07/12 02:35:40;;;;;;;12.68;5.13;;;;;;;17.27;100.00;93732.63;5010414;28;20076;-61
2023/07/12 02:38:07;;;;;;;8.43;5.00;;;;;;;17.32;100.00;93737.53;5009751;28;20050;-62
2023/07/12 02:40:34;;;;;;;9.03;4.53;;;;;;;17.37;100.00;93742.47;5010196;28;20046;-62
2023/07/12 02:43:01;;;;;;;7.85;4.80;;;;;;;17.37;100.00;93733.41;5009590;28;20053;-62
2023/07/12 02:45:28;;;;;;;6.10;4.18;;;;;;;17.51;100.00;93732.00;5010320;28;20411;-62
2023/07/12 02:47:54;;;;;;;8.63;4.30;;;;;;;17.63;100.00;93735.84;5009773;28;20048;-61
2023/07/12 02:50:21;;;;;;;9.43;4.57;;;;;;;17.61;100.00;93730.75;5008843;28;20046;-62
2023/07/12 02:52:48;;;;;;;8.87;4.20;;;;;;;17.77;100.00;93729.63;5009489;28;20704;-62
2023/07/12 02:55:15;;;;;;;8.68;4.38;;;;;;;17.86;100.00;93718.50;5008708;28;20052;-62
2023/07/12 02:57:42;;;;;;;9.45;4.28;;;;;;;17.98;100.00;93714.00;5010290;28;20046;-63
2023/07/12 03:00:09;;;;;;;7.97;4.22;;;;;;;18.04;100.00;93714.91;5027592;28;20038;-61
2023/07/12 03:02:36;;;;;;;8.90;4.50;;;;;;;18.07;100.00;93727.06;5029890;28;20063;-62
2023/07/12 03:05:03;;;;;;;8.73;4.27;;;;;;;18.02;100.00;93720.16;5029062;28;20049;-61
2023/07/12 03:07:30;;;;;;;11.10;4.43;;;;;;;18.10;100.00;93715.03;5029712;28;20396;-61
2023/07/12 03:09:58;;;;;;;7.82;4.20;;;;;;;18.02;100.00;93702.72;5028744;28;20050;-63
2023/07/12 03:12:25;;;;;;;10.27;4.43;;;;;;;17.71;100.00;93709.28;5029424;28;20063;-63
2023/07/12 03:14:52;;;;;;;6.88;4.60;;;;;;;17.87;100.00;93710.97;5028978;28;20049;-62
2023/07/12 03:17:19;;;;;;;10.43;4.57;;;;;;;18.04;100.00;93723.22;5029609;28;20041;-63
2023/07/12 03:19:47;;;;;;;8.57;4.40;;;;;;;17.77;100.00;93740.72;5028865;28;20045;-62
2023/07/12 03:22:16;;;;;;;9.05;4.25;;;;;;;17.93;100.00;93734.84;5028949;28;20044;-61
2023/07/12 03:24:42;;;;;;;7.95;4.10;;;;;;;17.96;100.00;93733.88;5029010;28;20486;-62
2023/07/12 03:27:09;;;;;;;10.13;4.43;;;;;;;18.05;100.00;93735.88;5028479;28;20457;-63
2023/07/12 03:29:36;;;;;;;7.73;4.50;;;;;;;18.11;100.00;93736.78;5029191;28;20136;-62
2023/07/12 03:32:05;;;;;;;8.45;4.38;;;;;;;18.10;100.00;93732.47;5028788;28;20079;-62
2023/07/12 03:34:32;;;;;;;7.82;4.60;;;;;;;17.69;100.00;93731.19;5044292;28;20110;-62
2023/07/12 03:37:00;;;;;;;10.35;4.50;;;;;;;17.77;100.00;93735.94;5013252;28;20045;-62
2023/07/12 03:39:27;;;;;;;8.30;4.60;;;;;;;17.99;100.00;93728.63;5029118;28;20054;-62
2023/07/12 03:41:54;;;;;;;7.40;4.27;;;;;;;17.99;100.00;93729.44;5024279;28;20054;-62
2023/07/12 03:44:21;;;;;;;11.25;4.68;;;;;;;17.93;100.00;93718.19;5028642;28;20467;-62
2023/07/12 03:46:48;;;;;;;10.68;4.40;;;;;;;18.09;100.00;93725.38;5028262;28;20491;-63
2023/07/12 03:49:14;;;;;;;12.25;4.40;;;;;;;18.17;100.00;93723.03;5027456;28;20041;-62
2023/07/12 03:51:41;;;;;;;10.73;4.20;;;;;;;18.20;100.00;93722.06;5027795;28;20049;-63
2023/07/12 03:54:08;;;;;;;9.97;4.33;;;;;;;18.17;100.00;93718.25;5015485;28;21131;-62
2023/07/12 03:56:35;;;;;;;6.82;3.85;;;;;;;18.16;100.00;93735.38;5028772;28;20041;-61
2023/07/12 03:59:02;;;;;;;8.75;4.32;;;;;;;18.04;100.00;93739.88;5028302;28;20053;-62
2023/07/12 04:01:29;;;;;;;7.80;4.30;;;;;;;18.08;100.00;93743.25;5028808;28;20045;-62
2023/07/12 04:03:56;;;;;;;9.30;4.47;;;;;;;18.10;100.00;93760.22;5028288;28;20122;-63
2023/07/12 04:06:22;;;;;;;10.43;4.77;;;;;;;18.17;100.00;93775.81;5028940;28;20042;-62
2023/07/12 04:08:49;;;;;;;13.45;4.80;;;;;;;18.20;100.00;93799.84;5028089;28;20517;-61
2023/07/12 04:11:25;;;;;;;17.55;5.60;;;;;;;18.05;100.00;93833.06;5028400;28;20499;-62
2023/07/12 04:13:52;;;;;;;10.32;5.10;;;;;;;17.75;100.00;93826.47;5027982;28;20073;-62
2023/07/12 04:16:18;;;;;;;11.60;5.15;;;;;;;17.28;100.00;93814.59;5028443;28;20429;-62
2023/07/12 04:18:45;;;;;;;11.57;5.60;;;;;;;17.28;100.00;93833.25;5028345;28;20041;-62
2023/07/12 04:21:13;;;;;;;10.18;6.00;;;;;;;17.51;100.00;93829.09;5028205;28;20057;-62
2023/07/12 04:23:40;;;;;;;12.90;6.18;;;;;;;17.62;100.00;93832.16;5028444;28;20052;-62
2023/07/12 04:26:06;;;;;;;10.93;6.35;;;;;;;17.52;100.00;93842.50;5027383;28;20052;-62
2023/07/12 04:28:37;;;;;;;12.18;6.05;;;;;;;17.67;100.00;93831.56;5028525;28;20114;-63
2023/07/12 04:31:10;;;;;;;10.97;5.93;;;;;;;17.67;100.00;93806.56;5027443;28;20056;-61
2023/07/12 04:33:39;;;;;;;14.10;6.15;;;;;;;17.56;100.00;93795.16;5029073;28;20045;-61
2023/07/12 04:36:08;;;;;;;13.82;6.20;;;;;;;17.83;100.00;93810.25;5031389;28;20049;-62
2023/07/12 04:38:36;;;;;;;11.52;6.45;;;;;;;17.82;100.00;93819.81;5031926;28;20055;-62
2023/07/12 04:41:04;;;;;;;11.10;5.95;;;;;;;17.70;100.00;93832.63;5031123;28;20437;-62
2023/07/12 04:43:30;;;;;;;9.97;5.80;;;;;;;17.83;100.00;93840.78;5029753;28;20045;-63
2023/07/12 04:45:58;;;;;;;12.45;6.20;;;;;;;17.86;100.00;93839.88;5031372;28;20399;-62
2023/07/12 04:48:25;;;;;;;12.15;6.55;;;;;;;17.87;100.00;93841.44;5031682;28;20033;-61
2023/07/12 04:50:54;;;;;;;11.45;6.30;;;;;;;17.95;100.00;93835.09;5030882;28;20046;-61
2023/07/12 04:53:22;;;;;;;10.30;6.38;;;;;;;18.03;100.00;93854.97;5029736;28;20046;-64
2023/07/12 04:55:52;;;;;;;10.83;5.90;;;;;;;18.08;100.00;93868.22;5030607;28;20045;-61
2023/07/12 04:58:19;;;;;;;10.05;5.75;;;;;;;18.12;100.00;93868.84;5023538;28;20136;-63
2023/07/12 05:00:46;;;;;;;10.23;5.50;;;;;;;18.02;100.00;93858.22;5026270;28;20049;-61
2023/07/12 05:03:15;;;;;;;12.35;7.18;;;;;;;17.94;100.00;93857.75;5030312;28;20049;-61
2023/07/12 05:05:43;;;;;;;12.57;6.82;;;;;;;18.00;100.00;93830.91;5031262;28;20058;-61
2023/07/12 05:08:10;;;;;;;13.97;6.37;;;;;;;18.17;100.00;93837.66;5028860;28;20033;-61
2023/07/12 05:10:37;;;;;;;14.40;6.47;;;;;;;18.28;100.00;93831.63;5031356;28;20350;-63
2023/07/12 05:13:04;;;;;;;13.20;6.50;;;;;;;18.30;100.00;93837.47;5030690;28;20522;-62
2023/07/12 05:15:31;;;;;;;12.80;6.25;;;;;;;18.31;100.00;93830.69;5031257;28;20140;-62
2023/07/12 05:17:58;;;;;;;13.00;6.30;;;;;;;18.21;100.00;93828.38;5030345;28;20123;-62
2023/07/12 05:20:26;;;;;;;10.67;6.10;;;;;;;18.21;100.00;93829.19;5031381;28;20053;-62
2023/07/12 05:22:53;;;;;;;10.60;5.93;;;;;;;18.34;100.00;93840.84;5030354;28;20098;-61
2023/07/12 05:25:19;;;;;;;13.18;6.55;;;;;;;18.44;100.00;93838.06;5031096;28;20186;-62
2023/07/12 05:27:46;;;;;;;10.32;6.53;;;;;;;18.45;100.00;93845.13;5029400;28;20076;-62
2023/07/12 05:30:14;;;;;;;12.63;7.57;;;;;;;18.48;100.00;93833.84;5030867;28;20045;-61
2023/07/12 05:32:41;;;;;;;12.67;6.87;;;;;;;18.51;100.00;93841.28;5030823;28;20470;-61
2023/07/12 05:35:08;;;;;;;12.55;6.53;;;;;;;18.49;100.00;93838.19;5030326;28;20059;-60
2023/07/12 05:37:35;;;;;;;13.40;6.47;;;;;;;18.48;100.00;93828.31;5030543;28;20045;-61
2023/07/12 05:40:03;;;;;;;12.63;6.43;;;;;;;18.67;100.00;93829.00;5030152;28;20532;-61
2023/07/12 05:42:30;;;;;;;12.57;6.43;;;;;;;18.77;100.00;93822.16;5030792;28;20410;-61
2023/07/12 05:44:57;;;;;;;11.53;6.30;;;;;;;18.61;100.00;93818.97;5029696;28;20046;-62
2023/07/12 05:47:23;;;;;;;11.93;6.55;;;;;;;18.37;100.00;93828.03;5030651;28;20045;-62
2023/07/12 05:49:50;;;;;;;10.05;5.88;;;;;;;18.38;100.00;93829.56;5030202;28;20110;-62
2023/07/12 05:52:17;;;;;;;12.52;6.40;;;;;;;18.53;100.00;93830.47;5030317;28;20041;-61
2023/07/12 05:54:43;;;;;;;11.13;5.88;;;;;;;18.69;100.00;93836.84;5029839;28;20037;-61
2023/07/12 05:57:10;;;;;;;11.27;6.70;;;;;;;18.44;100.00;93824.16;5030619;28;20431;-63
2023/07/12 05:59:37;;;;;;;12.40;6.53;;;;;;;18.42;100.00;93824.63;5030368;28;20466;-62
2023/07/12 06:02:06;;;;;;;11.43;6.05;;;;;;;18.49;100.00;93812.41;5029822;28;20045;-62
2023/07/12 06:04:33;;;;;;;9.20;5.78;;;;;;;18.46;100.00;93811.31;5030570;28;20049;-62
2023/07/12 06:07:00;;;;;;;12.27;6.55;;;;;;;18.48;100.00;93803.28;5029588;28;20151;-63
2023/07/12 06:09:27;;;;;;;10.40;5.63;;;;;;;18.48;100.00;93805.31;5028255;28;20041;-61
2023/07/12 06:11:54;;;;;;;11.07;5.65;;;;;;;19.03;100.00;93805.03;5029178;28;20423;-58
2023/07/12 06:14:20;;;;;;;10.02;5.72;;;;;;;19.37;100.00;93805.72;5028000;28;20476;-58
2023/07/12 06:16:47;;;;;;;10.00;5.75;;;;;;;19.49;100.00;93803.94;5029566;28;20053;-61
2023/07/12 06:19:14;;;;;;;10.25;5.63;;;;;;;19.64;100.00;93796.38;5042991;28;20071;-59
2023/07/12 06:21:41;;;;;;;11.33;5.20;;;;;;;19.85;100.00;93802.88;5011796;28;20049;-58
2023/07/12 06:24:07;;;;;;;13.93;5.15;;;;;;;19.90;100.00;93802.22;5027871;28;20103;-58
2023/07/12 06:26:34;;;;;;;14.27;5.35;;;;;;;20.08;100.00;93800.47;5030036;28;20049;-58
2023/07/12 06:29:02;;;;;;;10.88;5.50;;;;;;;20.24;100.00;93802.00;5029344;28;20057;-62
2023/07/12 06:31:29;;;;;;;11.05;5.53;;;;;;;20.74;100.00;93794.47;5030344;28;20061;-58
2023/07/12 06:34:03;;;;;;;10.00;4.90;;;;;;;22.19;100.00;93798.69;5029513;28;20413;-60
2023/07/12 06:36:33;;;;;;;9.43;4.70;;;;;;;24.16;100.00;93790.63;5030679;28;20450;-57
2023/07/12 06:38:59;;;;;;;13.27;5.18;;;;;;;22.96;100.00;93803.88;5028764;28;20045;-58
2023/07/12 06:41:26;;;;;;;10.30;4.80;;;;;;;21.85;100.00;93806.00;5017171;28;20458;-57
2023/07/12 06:43:53;;;;;;;10.07;4.75;;;;;;;22.70;100.00;93791.53;5029526;28;20041;-57
2023/07/12 06:46:20;;;;;;;11.90;5.13;;;;;;;23.67;100.00;93782.34;5029857;28;20045;-60
2023/07/12 06:48:47;;;;;;;9.38;4.47;;;;;;;22.73;100.00;93784.16;5029510;28;20063;-61
2023/07/12 06:51:14;;;;;;;7.70;4.40;;;;;;;22.52;100.00;93795.47;5029881;28;20130;-57
2023/07/12 06:53:41;;;;;;;8.40;4.97;;;;;;;22.42;100.00;93794.13;5029865;28;20055;-57
2023/07/12 06:56:08;;;;;;;10.25;5.05;;;;;;;21.48;100.00;93789.84;5027990;28;20041;-56
2023/07/12 06:58:35;;;;;;;12.60;5.10;;;;;;;21.14;100.00;93779.00;5029687;28;20392;-61
2023/07/12 07:01:07;;;;;;;8.70;4.85;;;;;;;21.67;100.00;93781.94;5028753;28;20051;-57
2023/07/12 07:03:35;;;;;;;12.73;5.00;;;;;;;21.99;100.00;93773.63;5029899;28;20037;-57
2023/07/12 07:06:03;;;;;;;12.90;5.47;;;;;;;22.77;100.00;93767.16;5028782;28;20106;-57
2023/07/12 07:08:31;;;;;;;8.90;5.07;;;;;;;23.01;100.00;93770.34;5027815;28;20040;-56
2023/07/12 07:11:00;;;;;;;12.40;5.40;;;;;;;22.83;100.00;93765.91;5028420;28;20040;-58
2023/07/12 07:13:27;;;;;;;12.10;5.15;;;;;;;22.55;100.00;93774.13;5028902;28;20049;-57
2023/07/12 07:15:54;;;;;;;9.82;5.28;;;;;;;21.90;100.00;93780.91;5028716;28;20049;-58
2023/07/12 07:18:22;;;;;;;11.95;5.53;;;;;;;21.45;100.00;93782.44;5029518;28;20045;-60
2023/07/12 07:20:50;;;;;;;9.98;5.30;;;;;;;21.57;100.00;93788.94;5028709;28;20042;-58
2023/07/12 07:23:17;;;;;;;8.33;5.17;;;;;;;21.98;100.00;93780.47;5029449;28;20461;-57
2023/07/12 07:25:45;;;;;;;9.50;5.30;;;;;;;21.91;100.00;93784.47;5028763;28;20494;-58
2023/07/12 07:28:12;;;;;;;10.45;5.30;;;;;;;21.99;100.00;93790.38;5028204;28;20041;-58
2023/07/12 07:30:39;;;;;;;11.45;5.60;;;;;;;22.08;100.00;93785.41;5029128;28;20409;-57
2023/07/12 07:33:06;;;;;;;9.82;5.15;;;;;;;22.34;100.00;93799.38;5028988;28;20471;-58
2023/07/12 07:35:34;;;;;;;10.63;5.50;;;;;;;22.27;100.00;93799.81;5029259;28;20053;-59
2023/07/12 07:38:00;;;;;;;10.45;5.32;;;;;;;22.02;100.00;93809.72;5027682;28;20071;-60
2023/07/12 07:40:27;;;;;;;12.60;6.00;;;;;;;21.79;100.00;93819.91;5028100;28;20049;-57
2023/07/12 07:42:55;;;;;;;11.30;5.53;;;;;;;21.84;100.00;93810.06;5015290;28;20044;-58
2023/07/12 07:45:22;;;;;;;9.15;5.50;;;;;;;22.03;100.00;93813.28;5029226;28;20418;-59
2023/07/12 07:47:49;;;;;;;11.03;5.57;;;;;;;23.80;100.00;93806.34;5026971;28;20045;-59
2023/07/12 07:50:16;;;;;;;10.63;5.80;;;;;;;26.44;100.00;93804.31;5028460;28;20047;-58
2023/07/12 07:52:43;;;;;;;9.98;5.40;;;;;;;28.62;100.00;93799.63;5027075;28;20332;-58
2023/07/12 07:55:09;;;;;;;10.20;5.07;;;;;;;30.69;92.71;93800.22;5028049;28;21862;-59
2023/07/12 07:57:36;;;;;;;10.18;4.97;;;;;;;30.96;85.36;93798.81;5029118;28;20041;-59
2023/07/12 08:00:10;;;;;;;10.37;5.30;;;;;;;30.90;81.46;93795.34;5015101;28;20041;-61
2023/07/12 08:02:37;;;;;;;9.77;5.45;;;;;;;28.91;93.19;93799.16;5028386;28;20114;-60
2023/07/12 08:05:05;;;;;;;11.80;5.53;;;;;;;28.82;99.03;93801.09;5027066;28;20045;-59
2023/07/12 08:07:44;;;;;;;9.65;6.07;;;;;;;28.53;100.00;93805.66;5027322;28;20402;-61
2023/07/12 08:10:15;;;;;;;10.40;6.10;;;;;;;27.77;100.00;93811.28;5023175;28;20157;-58
2023/07/12 08:12:42;;;;;;;9.37;6.27;;;;;;;27.04;100.00;93810.00;5028378;28;20041;-57
2023/07/12 08:15:09;;;;;;;11.27;6.25;;;;;;;26.60;100.00;93816.78;5026281;28;20635;-58
2023/07/12 08:17:37;;;;;;;10.93;6.65;;;;;;;26.04;100.00;93820.72;5028231;28;20049;-58
2023/07/12 08:20:08;;;;;;;12.88;6.63;;;;;;;26.22;100.00;93816.50;5027994;28;20052;-58
2023/07/12 08:22:35;;;;;;;10.57;6.63;;;;;;;26.09;100.00;93814.28;5027551;28;20475;-58
2023/07/12 08:25:02;;;;;;;11.67;6.67;;;;;;;26.29;100.00;93819.53;5027948;28;20106;-59
2023/07/12 08:27:32;;;;;;;8.77;6.22;;;;;;;27.00;100.00;93817.22;5028608;28;20054;-58
2023/07/12 08:29:59;;;;;;;7.97;6.20;;;;;;;27.04;100.00;93814.88;5028103;28;20037;-59
2023/07/12 08:32:28;;;;;;;9.93;6.40;;;;;;;27.29;100.00;93824.13;5028515;28;20116;-59
2023/07/12 08:34:55;;;;;;;11.00;6.40;;;;;;;28.04;100.00;93820.69;5027902;28;20056;-59
2023/07/12 08:37:23;;;;;;;11.37;6.63;;;;;;;28.12;97.55;93809.56;5028390;28;20067;-58
2023/07/12 08:39:50;;;;;;;8.77;5.90;;;;;;;28.93;93.59;93814.25;5028157;28;20110;-58
2023/07/12 08:42:41;;;;;;;10.35;6.40;;;;;;;29.52;89.59;93816.31;5028432;28;20049;-59
2023/07/12 08:45:28;;;;;;;9.35;5.75;;;;;;;31.01;79.06;93817.75;5028019;28;20160;-58
2023/07/12 08:48:14;;;;;;;12.98;6.00;;;;;;;31.61;73.95;93812.34;5015554;28;20072;-58
2023/07/12 08:50:44;;;;;;;8.47;5.60;;;;;;;30.25;78.42;93817.69;5028305;28;20045;-59
2023/07/12 08:53:15;;;;;;;9.27;5.70;;;;;;;29.70;85.38;93815.47;5027695;28;20656;-58
2023/07/12 08:55:42;;;;;;;8.50;5.22;;;;;;;32.55;69.18;93809.41;5028230;28;20041;-58
2023/07/12 08:58:26;;;;;;;8.38;5.25;;;;;;;32.56;65.73;93823.06;5027189;28;20075;-58
2023/07/12 09:01:10;;;;;;;9.70;5.18;;;;;;;31.98;67.26;93813.13;5027713;28;20093;-58
2023/07/12 09:03:37;;;;;;;8.80;5.90;;;;;;;31.49;70.06;93814.72;5027242;28;20160;-60
2023/07/12 09:06:13;;;;;;;9.57;5.68;;;;;;;30.14;72.07;93821.50;5027581;28;20054;-57
2023/07/12 09:08:45;;;;;;;8.57;5.20;;;;;;;30.66;70.20;93819.84;5028161;28;20057;-58
2023/07/12 09:11:27;;;;;;;7.88;6.00;;;;;;;30.01;72.26;93804.56;5027088;28;20072;-58
2023/07/12 09:13:56;;;;;;;9.18;5.80;;;;;;;29.30;76.08;93811.84;5027542;28;20068;-57
2023/07/12 09:16:33;;;;;;;7.80;5.67;;;;;;;30.20;76.99;93802.34;5025855;28;20139;-59
2023/07/12 09:19:23;;;;;;;9.02;5.50;;;;;;;30.53;76.33;93805.00;5027479;28;20057;-58
2023/07/12 09:21:54;;;;;;;7.85;5.35;;;;;;;29.99;78.72;93798.69;5030639;28;20041;-58
2023/07/12 09:24:32;;;;;;;9.60;6.05;;;;;;;31.10;73.99;93810.06;5030082;28;20045;-58
2023/07/12 09:27:16;;;;;;;10.73;5.53;;;;;;;31.20;74.74;93806.19;5031214;28;20068;-58
2023/07/12 09:29:43;;;;;;;10.07;5.83;;;;;;;29.99;77.01;93807.94;5018066;28;20053;-58
2023/07/12 09:32:23;;;;;;;8.70;6.28;;;;;;;28.70;85.56;93804.66;5031165;28;20419;-59
2023/07/12 09:34:54;;;;;;;8.30;5.65;;;;;;;28.73;86.08;93809.97;5030663;28;20059;-57
2023/07/12 09:37:22;;;;;;;8.02;6.00;;;;;;;28.56;87.15;93807.41;5030187;28;20118;-58
2023/07/12 09:39:55;;;;;;;12.23;6.00;;;;;;;28.12;90.32;93815.22;5030886;28;20401;-59
2023/07/12 09:42:23;;;;;;;10.87;6.57;;;;;;;28.96;86.84;93801.88;5030920;28;20118;-58
2023/07/12 09:44:50;;;;;;;7.82;5.60;;;;;;;30.20;78.82;93799.53;5030421;28;20052;-58
2023/07/12 09:47:26;;;;;;;8.10;5.63;;;;;;;30.31;71.79;93795.69;5031212;28;20045;-58
2023/07/12 09:50:04;;;;;;;8.68;6.00;;;;;;;31.81;69.55;93805.09;5030503;28;20045;-58
2023/07/12 09:52:36;;;;;;;8.95;5.50;;;;;;;32.10;65.86;93791.63;5031065;28;20054;-62
2023/07/12 09:55:19;;;;;;;9.13;5.57;;;;;;;31.97;59.67;93795.31;5030221;28;20072;-58
2023/07/12 09:58:09;;;;;;;7.78;5.47;;;;;;;34.07;55.77;93775.81;5030429;28;20045;-58
2023/07/12 10:00:45;;;;;;;8.55;5.60;;;;;;;35.40;49.45;93781.66;5029665;28;20045;-59
2023/07/12 10:03:31;;;;;;;7.72;5.38;;;;;;;35.26;48.79;93777.63;5028247;28;20616;-62
2023/07/12 10:06:05;;;;;;;6.88;4.80;;;;;;;36.70;47.06;93777.94;5030632;28;20046;-62
2023/07/12 10:08:46;;;;;;;8.87;5.10;;;;;;;35.48;48.11;93778.00;5030763;28;20096;-58
2023/07/12 10:11:23;;;;;;;7.82;4.78;;;;;;;37.31;42.85;93771.31;5029586;28;20111;-59
2023/07/12 10:13:56;;;;;;;8.40;5.65;;;;;;;33.89;49.74;93763.53;5030194;28;20046;-59
2023/07/12 10:16:35;;;;;;;8.20;5.13;;;;;;;33.85;49.75;93766.00;5025764;28;20359;-58
2023/07/12 10:19:11;;;;;;;6.70;5.20;;;;;;;34.24;50.51;93769.50;5029870;28;20495;-58
2023/07/12 10:21:39;;;;;;;8.30;5.00;;;;;;;33.82;51.07;93776.44;5030110;28;20037;-58
2023/07/12 10:24:14;;;;;;;8.50;5.40;;;;;;;32.98;52.95;93774.44;5030061;28;20038;-62
2023/07/12 10:26:43;;;;;;;9.15;5.38;;;;;;;33.08;52.35;93776.69;5045662;28;20049;-61
2023/07/12 10:29:45;;;;;;;7.20;5.28;;;;;;;30.48;57.68;93778.31;5029569;28;20786;-59
2023/07/12 10:32:29;;;;;;;8.70;5.78;;;;;;;31.38;57.31;93781.00;5020658;28;20111;-58
2023/07/12 10:35:15;;;;;;;8.90;5.30;;;;;;;31.25;56.33;93784.69;5029164;28;20045;-59
2023/07/12 10:37:58;;;;;;;7.00;5.30;;;;;;;33.02;52.18;93771.97;5029553;28;20056;-59
2023/07/12 10:40:32;;;;;;;6.93;5.30;;;;;;;33.58;50.87;93768.50;5028919;28;20589;-58
2023/07/12 10:43:04;;;;;;;7.07;5.25;;;;;;;32.72;53.10;93752.81;5029559;28;20052;-58
2023/07/12 10:45:36;;;;;;;8.50;5.80;;;;;;;31.73;56.22;93753.22;5028720;28;20046;-58
2023/07/12 10:48:05;;;;;;;7.50;5.23;;;;;;;31.37;58.33;93748.25;5029522;28;20497;-58
2023/07/12 10:50:55;;;;;;;8.27;5.78;;;;;;;30.14;61.39;93738.69;5029804;28;20045;-58
2023/07/12 10:53:26;;;;;;;9.98;6.10;;;;;;;31.00;62.01;93733.28;5028618;28;20126;-62
2023/07/12 10:56:03;;;;;;;8.30;5.88;;;;;;;31.70;61.49;93729.56;5029238;28;20155;-58
2023/07/12 10:58:56;;;;;;;10.45;6.10;;;;;;;31.65;61.01;93736.94;5029663;28;20060;-57
2023/07/12 11:01:40;;;;;;;7.43;6.00;;;;;;;31.39;60.69;93726.56;5028886;28;20049;-60
2023/07/12 11:04:11;;;;;;;7.72;5.78;;;;;;;30.42;63.13;93740.88;5029120;28;20044;-62
2023/07/12 11:06:56;;;;;;;8.38;5.78;;;;;;;30.20;65.33;93736.47;5029299;28;20064;-58
2023/07/12 11:09:24;;;;;;;9.38;6.22;;;;;;;28.71;71.33;93739.16;5028277;28;20666;-58
2023/07/12 11:12:07;;;;;;;9.32;6.18;;;;;;;28.75;74.37;93733.94;5028282;28;20044;-58
2023/07/12 11:14:36;;;;;;;9.33;5.80;;;;;;;29.33;72.33;93735.22;5029062;28;20060;-57
2023/07/12 11:17:06;;;;;;;10.23;6.15;;;;;;;29.85;63.90;93744.22;5027308;28;20057;-58
2023/07/12 11:19:35;;;;;;;10.82;6.15;;;;;;;30.58;59.71;93734.03;5029283;28;20060;-57
2023/07/12 11:22:12;;;;;;;7.95;5.85;;;;;;;29.07;66.77;93738.75;5028445;28;20042;-57
2023/07/12 11:25:01;;;;;;;10.88;5.82;;;;;;;28.54;71.28;93736.63;5028952;28;20071;-57
2023/07/12 11:27:54;;;;;;;10.17;6.10;;;;;;;29.27;69.49;93737.38;5028108;28;20088;-57
2023/07/12 11:30:35;;;;;;;10.23;5.97;;;;;;;29.55;66.93;93728.34;5027952;28;20397;-58
2023/07/12 11:33:24;;;;;;;8.77;6.00;;;;;;;29.02;63.91;93736.81;5026834;28;20045;-60
2023/07/12 11:36:03;;;;;;;9.45;5.90;;;;;;;29.24;66.67;93730.00;5028377;28;20045;-61
2023/07/12 11:38:33;;;;;;;7.38;6.07;;;;;;;29.42;62.13;93731.97;5027038;28;20041;-57